createdAt,value
2022-09-06T00:00:05.626Z,76.43
2022-09-06T00:01:05.605Z,76.72
2022-09-06T00:02:05.592Z,76.72
2022-09-06T00:03:05.652Z,76.91
2022-09-06T00:04:05.622Z,76.82
2022-09-06T00:05:05.562Z,76.43
2022-09-06T00:06:05.546Z,76.91
2022-09-06T00:07:05.529Z,76.72
2022-09-06T00:08:05.523Z,76.53
2022-09-06T00:09:05.503Z,76.24
2022-09-06T00:10:05.494Z,76.24
2022-09-06T00:11:05.485Z,76.24
2022-09-06T00:12:05.467Z,76.72
2022-09-06T00:13:05.458Z,76.82
2022-09-06T00:14:05.442Z,76.62
2022-09-06T00:15:05.430Z,76.43
2022-09-06T00:16:05.447Z,76.91
2022-09-06T00:17:05.403Z,76.62
2022-09-06T00:18:05.389Z,76.14
2022-09-06T00:19:05.383Z,76.82
2022-09-06T00:20:05.364Z,76.82
2022-09-06T00:21:05.354Z,76.72
2022-09-06T00:22:05.337Z,76.24
2022-09-06T00:23:05.330Z,77.01
2022-09-06T00:24:05.313Z,77.01
2022-09-06T00:25:05.300Z,77.40
2022-09-06T00:26:05.285Z,76.91
2022-09-06T00:27:05.277Z,77.40
2022-09-06T00:28:05.264Z,77.50
2022-09-06T00:29:05.253Z,77.50
2022-09-06T00:30:05.236Z,77.20
2022-09-06T00:31:05.259Z,77.59
2022-09-06T00:32:05.212Z,78.03
2022-09-06T00:33:05.201Z,77.65
2022-09-06T00:34:05.195Z,77.75
2022-09-06T00:35:05.174Z,77.84
2022-09-06T00:36:05.167Z,77.36
2022-09-06T00:37:05.154Z,78.42
2022-09-06T00:38:05.140Z,78.42
2022-09-06T00:39:05.125Z,78.42
2022-09-06T00:40:05.186Z,78.42
2022-09-06T00:41:05.100Z,78.42
2022-09-06T00:42:05.084Z,78.42
2022-09-06T00:43:05.070Z,78.52
2022-09-06T00:44:05.058Z,78.71
2022-09-06T00:45:05.045Z,79.20
2022-09-06T00:46:05.064Z,78.81
2022-09-06T00:47:05.026Z,78.81
2022-09-06T00:48:05.007Z,78.81
2022-09-06T00:49:04.998Z,78.61
2022-09-06T00:50:04.980Z,78.71
2022-09-06T00:51:04.970Z,78.61
2022-09-06T00:52:04.955Z,78.81
2022-09-06T00:53:04.944Z,78.91
2022-09-06T00:54:04.930Z,78.91
2022-09-06T00:55:04.919Z,79.00
2022-09-06T00:56:04.902Z,79.20
2022-09-06T00:57:04.894Z,79.00
2022-09-06T00:58:04.874Z,79.10
2022-09-06T00:59:04.863Z,79.00
2022-09-06T01:00:04.850Z,79.00
2022-09-06T01:01:04.899Z,79.10
2022-09-06T01:02:04.926Z,78.81
2022-09-06T01:03:04.812Z,78.81
2022-09-06T01:04:04.799Z,79.00
2022-09-06T01:05:04.793Z,78.81
2022-09-06T01:06:04.772Z,78.81
2022-09-06T01:07:04.766Z,78.91
2022-09-06T01:08:04.746Z,79.10
2022-09-06T01:09:04.735Z,79.49
2022-09-06T01:10:04.729Z,79.49
2022-09-06T01:11:04.706Z,79.20
2022-09-06T01:12:04.693Z,79.49
2022-09-06T01:13:04.688Z,79.39
2022-09-06T01:14:04.669Z,79.49
2022-09-06T01:15:04.658Z,79.20
2022-09-06T01:16:04.663Z,79.49
2022-09-06T01:17:04.632Z,79.58
2022-09-06T01:18:04.616Z,79.49
2022-09-06T01:19:04.607Z,79.49
2022-09-06T01:20:04.590Z,79.20
2022-09-06T01:21:04.580Z,80.07
2022-09-06T01:22:04.568Z,79.97
2022-09-06T01:23:04.553Z,79.78
2022-09-06T01:24:04.540Z,80.16
2022-09-06T01:25:04.529Z,80.26
2022-09-06T01:26:04.513Z,79.97
2022-09-06T01:27:04.504Z,80.16
2022-09-06T01:28:04.490Z,80.36
2022-09-06T01:29:04.478Z,80.55
2022-09-06T01:30:04.462Z,80.51
2022-09-06T01:31:04.486Z,80.16
2022-09-06T01:32:04.440Z,80.07
2022-09-06T01:33:04.425Z,80.46
2022-09-06T01:34:04.410Z,80.26
2022-09-06T01:35:04.402Z,80.26
2022-09-06T01:36:04.392Z,80.07
2022-09-06T01:37:10.453Z,80.26
2022-09-06T01:38:04.359Z,80.16
2022-09-06T01:39:04.344Z,80.26
2022-09-06T01:40:04.413Z,80.26
2022-09-06T01:41:04.325Z,80.16
2022-09-06T01:42:04.309Z,80.16
2022-09-06T01:43:07.889Z,79.29
2022-09-06T01:44:04.281Z,79.49
2022-09-06T01:45:04.267Z,79.49
2022-09-06T01:46:04.321Z,79.29
2022-09-06T01:47:04.247Z,79.20
2022-09-06T01:48:04.240Z,80.07
2022-09-06T01:49:04.216Z,80.36
2022-09-06T01:50:04.212Z,80.26
2022-09-06T01:51:04.191Z,80.32
2022-09-06T01:52:04.180Z,80.80
2022-09-06T01:53:04.166Z,80.71
2022-09-06T01:54:04.158Z,80.80
2022-09-06T01:55:04.139Z,81.19
2022-09-06T01:56:04.125Z,81.19
2022-09-06T01:57:04.113Z,80.80
2022-09-06T01:58:04.104Z,81.38
2022-09-06T01:59:04.085Z,81.57
2022-09-06T02:00:04.076Z,81.19
2022-09-06T02:01:04.155Z,81.48
2022-09-06T02:02:04.144Z,81.38
2022-09-06T02:03:04.036Z,81.29
2022-09-06T02:04:04.032Z,81.38
2022-09-06T02:05:04.011Z,81.29
2022-09-06T02:06:04.013Z,81.19
2022-09-06T02:07:03.980Z,80.90
2022-09-06T02:08:03.969Z,81.48
2022-09-06T02:09:03.959Z,81.38
2022-09-06T02:10:03.945Z,81.71
2022-09-06T02:11:03.946Z,81.19
2022-09-06T02:12:03.923Z,81.29
2022-09-06T02:13:03.905Z,81.48
2022-09-06T02:14:03.893Z,81.32
2022-09-06T02:15:03.881Z,80.71
2022-09-06T02:16:03.870Z,80.94
2022-09-06T02:17:03.961Z,80.84
2022-09-06T02:18:03.843Z,80.61
2022-09-06T02:19:03.825Z,81.42
2022-09-06T02:20:03.815Z,80.84
2022-09-06T02:21:03.806Z,80.65
2022-09-06T02:22:03.790Z,80.94
2022-09-06T02:23:03.775Z,80.84
2022-09-06T02:24:03.762Z,80.84
2022-09-06T02:25:03.751Z,81.04
2022-09-06T02:26:03.737Z,80.46
2022-09-06T02:27:03.727Z,81.04
2022-09-06T02:28:03.717Z,80.84
2022-09-06T02:29:03.699Z,80.65
2022-09-06T02:30:03.689Z,81.04
2022-09-06T02:31:03.776Z,81.48
2022-09-06T02:32:03.666Z,82.35
2022-09-06T02:33:03.655Z,81.73
2022-09-06T02:34:03.635Z,82.69
2022-09-06T02:35:03.618Z,83.08
2022-09-06T02:36:03.610Z,83.66
2022-09-06T02:37:03.595Z,83.56
2022-09-06T02:38:03.589Z,83.66
2022-09-06T02:39:03.570Z,83.75
2022-09-06T02:40:03.610Z,83.85
2022-09-06T02:41:03.544Z,84.14
2022-09-06T02:42:03.533Z,84.05
2022-09-06T02:43:03.518Z,84.33
2022-09-06T02:44:03.510Z,84.05
2022-09-06T02:45:03.492Z,84.97
2022-09-06T02:46:03.607Z,84.78
2022-09-06T02:47:03.492Z,85.45
2022-09-06T02:48:03.456Z,85.55
2022-09-06T02:49:03.437Z,84.78
2022-09-06T02:50:03.428Z,85.16
2022-09-06T02:51:03.412Z,85.64
2022-09-06T02:52:03.400Z,85.16
2022-09-06T02:53:03.387Z,85.30
2022-09-06T02:54:03.380Z,84.53
2022-09-06T02:55:03.362Z,84.91
2022-09-06T02:56:03.349Z,84.78
2022-09-06T02:57:03.332Z,85.01
2022-09-06T02:58:03.316Z,84.82
2022-09-06T02:59:03.305Z,84.97
2022-09-06T03:00:03.296Z,84.97
2022-09-06T03:01:03.378Z,84.97
2022-09-06T03:02:03.324Z,84.78
2022-09-06T03:03:03.250Z,84.97
2022-09-06T03:04:03.241Z,85.26
2022-09-06T03:05:03.225Z,85.26
2022-09-06T03:06:03.213Z,85.26
2022-09-06T03:07:03.199Z,85.26
2022-09-06T03:08:03.184Z,84.78
2022-09-06T03:09:03.173Z,84.58
2022-09-06T03:10:03.158Z,84.88
2022-09-06T03:11:03.143Z,84.68
2022-09-06T03:12:03.132Z,84.88
2022-09-06T03:13:03.121Z,84.68
2022-09-06T03:14:03.105Z,84.78
2022-09-06T03:15:03.093Z,84.97
2022-09-06T03:16:03.075Z,84.97
2022-09-06T03:17:03.119Z,84.78
2022-09-06T03:18:03.049Z,85.06
2022-09-06T03:19:03.037Z,84.88
2022-09-06T03:20:03.025Z,84.48
2022-09-06T03:21:03.011Z,84.39
2022-09-06T03:22:02.997Z,84.39
2022-09-06T03:23:02.986Z,84.48
2022-09-06T03:24:02.973Z,84.39
2022-09-06T03:25:02.961Z,84.24
2022-09-06T03:26:02.942Z,84.05
2022-09-06T03:27:02.930Z,84.14
2022-09-06T03:28:02.921Z,83.56
2022-09-06T03:29:02.901Z,82.60
2022-09-06T03:30:02.894Z,82.50
2022-09-06T03:31:02.923Z,82.40
2022-09-06T03:32:02.866Z,82.02
2022-09-06T03:33:03.156Z,82.02
2022-09-06T03:34:02.842Z,81.92
2022-09-06T03:35:02.825Z,82.11
2022-09-06T03:36:02.815Z,82.40
2022-09-06T03:37:02.801Z,81.73
2022-09-06T03:38:02.787Z,81.92
2022-09-06T03:39:02.770Z,81.15
2022-09-06T03:40:02.867Z,81.15
2022-09-06T03:41:02.745Z,80.76
2022-09-06T03:42:02.739Z,80.76
2022-09-06T03:43:02.724Z,80.08
2022-09-06T03:44:02.706Z,79.31
2022-09-06T03:45:02.694Z,79.41
2022-09-06T03:46:02.784Z,79.12
2022-09-06T03:47:02.665Z,79.41
2022-09-06T03:48:02.654Z,79.50
2022-09-06T03:49:02.640Z,79.41
2022-09-06T03:50:02.626Z,79.50
2022-09-06T03:51:02.615Z,78.73
2022-09-06T03:52:02.603Z,77.86
2022-09-06T03:53:02.590Z,77.38
2022-09-06T03:54:02.576Z,77.09
2022-09-06T03:55:02.564Z,77.19
2022-09-06T03:56:02.550Z,76.90
2022-09-06T03:57:02.532Z,77.19
2022-09-06T03:58:02.519Z,77.38
2022-09-06T03:59:02.503Z,76.90
2022-09-06T04:00:02.501Z,76.70
2022-09-06T04:01:02.545Z,77.09
2022-09-06T04:02:02.528Z,77.00
2022-09-06T04:03:02.452Z,76.80
2022-09-06T04:04:02.442Z,76.61
2022-09-06T04:05:02.441Z,76.70
2022-09-06T04:06:02.418Z,76.70
2022-09-06T04:07:02.408Z,77.09
2022-09-06T04:08:02.389Z,76.61
2022-09-06T04:09:02.380Z,76.70
2022-09-06T04:10:02.372Z,76.70
2022-09-06T04:11:02.351Z,76.61
2022-09-06T04:12:02.338Z,76.80
2022-09-06T04:13:02.319Z,76.42
2022-09-06T04:14:02.310Z,76.80
2022-09-06T04:15:02.297Z,77.03
2022-09-06T04:16:02.282Z,76.84
2022-09-06T04:17:02.328Z,76.84
2022-09-06T04:18:04.985Z,77.09
2022-09-06T04:19:02.246Z,77.00
2022-09-06T04:20:02.253Z,76.55
2022-09-06T04:21:02.226Z,76.70
2022-09-06T04:22:02.211Z,76.70
2022-09-06T04:23:02.191Z,76.70
2022-09-06T04:24:02.175Z,76.64
2022-09-06T04:25:02.168Z,76.74
2022-09-06T04:26:02.153Z,76.74
2022-09-06T04:27:02.144Z,76.74
2022-09-06T04:28:02.127Z,76.70
2022-09-06T04:29:02.119Z,77.28
2022-09-06T04:30:02.103Z,77.86
2022-09-06T04:31:04.542Z,77.48
2022-09-06T04:32:02.166Z,77.76
2022-09-06T04:33:02.067Z,77.86
2022-09-06T04:34:02.050Z,78.06
2022-09-06T04:35:02.044Z,77.86
2022-09-06T04:36:02.026Z,78.25
2022-09-06T04:37:02.014Z,78.34
2022-09-06T04:38:02.007Z,79.12
2022-09-06T04:39:01.979Z,79.99
2022-09-06T04:40:02.083Z,80.86
2022-09-06T04:41:01.955Z,81.15
2022-09-06T04:42:01.954Z,82.11
2022-09-06T04:43:01.940Z,82.21
2022-09-06T04:44:01.921Z,82.07
2022-09-06T04:45:01.899Z,82.40
2022-09-06T04:46:02.080Z,82.56
2022-09-06T04:47:04.316Z,82.79
2022-09-06T04:48:01.868Z,81.92
2022-09-06T04:49:01.852Z,81.82
2022-09-06T04:50:01.841Z,81.73
2022-09-06T04:51:01.825Z,81.44
2022-09-06T04:52:01.812Z,82.21
2022-09-06T04:53:01.794Z,82.02
2022-09-06T04:54:01.780Z,82.11
2022-09-06T04:55:01.772Z,82.11
2022-09-06T04:56:01.761Z,82.02
2022-09-06T04:57:01.745Z,82.02
2022-09-06T04:58:01.739Z,82.31
2022-09-06T04:59:01.717Z,82.65
2022-09-06T05:00:01.706Z,83.04
2022-09-06T05:01:01.780Z,82.65
2022-09-06T05:02:01.740Z,83.08
2022-09-06T05:03:01.669Z,83.04
2022-09-06T05:04:01.655Z,82.65
2022-09-06T05:05:01.642Z,82.36
2022-09-06T05:06:01.626Z,83.62
2022-09-06T05:07:01.612Z,84.10
2022-09-06T05:08:01.602Z,84.35
2022-09-06T05:09:01.585Z,83.58
2022-09-06T05:10:01.577Z,84.16
2022-09-06T05:11:01.560Z,84.16
2022-09-06T05:12:01.550Z,84.25
2022-09-06T05:13:01.535Z,84.35
2022-09-06T05:14:01.545Z,84.35
2022-09-06T05:15:01.504Z,84.35
2022-09-06T05:16:01.533Z,84.00
2022-09-06T05:17:01.479Z,84.06
2022-09-06T05:18:01.464Z,84.00
2022-09-06T05:19:01.447Z,83.91
2022-09-06T05:20:01.444Z,84.39
2022-09-06T05:21:01.433Z,84.20
2022-09-06T05:22:01.411Z,84.20
2022-09-06T05:23:01.396Z,83.72
2022-09-06T05:24:01.387Z,84.20
2022-09-06T05:25:01.376Z,83.42
2022-09-06T05:26:01.363Z,83.33
2022-09-06T05:27:01.343Z,83.81
2022-09-06T05:28:01.331Z,84.24
2022-09-06T05:29:01.316Z,84.24
2022-09-06T05:30:01.303Z,84.53
2022-09-06T05:31:01.288Z,84.53
2022-09-06T05:32:01.348Z,84.43
2022-09-06T05:33:01.265Z,85.11
2022-09-06T05:34:01.253Z,84.53
2022-09-06T05:35:01.237Z,84.43
2022-09-06T05:36:01.225Z,84.53
2022-09-06T05:37:01.210Z,84.91
2022-09-06T05:38:01.196Z,85.88
2022-09-06T05:39:01.183Z,86.46
2022-09-06T05:40:01.281Z,86.75
2022-09-06T05:41:01.163Z,86.56
2022-09-06T05:42:01.143Z,87.43
2022-09-06T05:43:01.136Z,87.62
2022-09-06T05:44:01.125Z,87.33
2022-09-06T05:45:01.102Z,87.29
2022-09-06T05:46:01.158Z,87.87
2022-09-06T05:47:01.075Z,88.35
2022-09-06T05:48:01.062Z,88.79
2022-09-06T05:49:01.074Z,88.98
2022-09-06T05:50:01.034Z,89.27
2022-09-06T05:51:01.021Z,90.72
2022-09-06T05:52:01.010Z,90.33
2022-09-06T05:53:00.995Z,90.37
2022-09-06T05:54:00.985Z,90.37
2022-09-06T05:55:00.970Z,91.35
2022-09-06T05:56:00.956Z,91.53
2022-09-06T05:57:00.943Z,91.92
2022-09-06T05:58:00.930Z,92.50
2022-09-06T05:59:00.915Z,92.55
2022-09-06T06:00:00.900Z,93.37
2022-09-06T06:01:00.952Z,92.74
2022-09-06T06:02:04.286Z,91.35
2022-09-06T06:03:00.857Z,90.81
2022-09-06T06:04:00.858Z,90.67
2022-09-06T06:05:00.834Z,92.02
2022-09-06T06:06:00.826Z,92.11
2022-09-06T06:07:00.807Z,93.71
2022-09-06T06:08:00.795Z,94.00
2022-09-06T06:09:00.786Z,95.35
2022-09-06T06:10:00.779Z,97.38
2022-09-06T06:11:00.749Z,97.47
2022-09-06T06:12:00.740Z,97.19
2022-09-06T06:13:00.722Z,97.96
2022-09-06T06:14:00.718Z,98.54
2022-09-06T06:15:00.698Z,99.88
2022-09-06T06:16:00.710Z,99.40
2022-09-06T06:17:00.756Z,99.50
2022-09-06T06:18:00.665Z,99.88
2022-09-06T06:19:00.650Z,99.45
2022-09-06T06:20:00.632Z,99.65
2022-09-06T06:21:00.625Z,99.65
2022-09-06T06:22:00.604Z,98.78
2022-09-06T06:23:00.590Z,98.78
2022-09-06T06:24:00.575Z,97.91
2022-09-06T06:25:00.561Z,97.91
2022-09-06T06:26:00.556Z,97.42
2022-09-06T06:27:00.538Z,98.34
2022-09-06T06:28:00.521Z,99.99
2022-09-06T06:29:00.511Z,99.99
2022-09-06T06:30:00.494Z,99.99
2022-09-06T06:31:00.482Z,99.99
2022-09-06T06:32:00.581Z,99.99
2022-09-06T06:33:00.455Z,99.99
2022-09-06T06:34:00.440Z,99.99
2022-09-06T06:35:00.425Z,99.99
2022-09-06T06:36:00.413Z,99.99
2022-09-06T06:37:00.399Z,99.99
2022-09-06T06:38:00.385Z,99.99
2022-09-06T06:39:00.375Z,99.99
2022-09-06T06:40:00.432Z,99.99
2022-09-06T06:41:04.531Z,99.99
2022-09-06T06:42:00.329Z,99.99
2022-09-06T06:43:00.322Z,99.99
2022-09-06T06:44:00.304Z,99.99
2022-09-06T06:45:00.289Z,99.99
2022-09-06T06:46:00.295Z,99.99
2022-09-06T06:47:00.266Z,99.99
2022-09-06T06:48:00.249Z,99.99
2022-09-06T06:49:00.235Z,99.99
2022-09-06T06:50:00.239Z,99.99
2022-09-06T06:51:00.210Z,99.99
2022-09-06T06:52:00.190Z,99.99
2022-09-06T06:53:00.176Z,99.99
2022-09-06T06:54:00.209Z,99.99
2022-09-06T06:55:00.153Z,99.99
2022-09-06T06:56:00.140Z,99.99
2022-09-06T06:57:00.130Z,99.99
2022-09-06T06:58:00.113Z,99.99
2022-09-06T06:59:00.103Z,99.99
2022-09-06T07:00:00.091Z,99.99
2022-09-06T07:01:00.187Z,99.99
2022-09-06T07:02:00.214Z,99.99
2022-09-06T07:03:00.082Z,99.99
2022-09-06T07:04:00.030Z,99.99
2022-09-06T07:05:00.386Z,99.99
2022-09-06T07:06:15.400Z,99.99
2022-09-06T07:07:59.972Z,99.41
2022-09-06T07:08:59.966Z,98.83
2022-09-06T07:10:59.939Z,99.99
2022-09-06T07:11:59.920Z,99.99
2022-09-06T07:12:59.912Z,99.99
2022-09-06T07:13:59.894Z,99.99
2022-09-06T07:14:59.888Z,99.99
2022-09-06T07:15:59.911Z,99.99
2022-09-06T07:16:59.854Z,99.99
2022-09-06T07:17:59.841Z,99.99
2022-09-06T07:18:59.858Z,99.99
2022-09-06T07:20:15.501Z,99.99
2022-09-06T07:22:04.315Z,99.99
2022-09-06T07:24:07.901Z,99.99
2022-09-06T07:24:59.748Z,99.99
2022-09-06T07:25:59.735Z,99.46
2022-09-06T07:28:01.600Z,96.41
2022-09-06T07:28:59.700Z,95.44
2022-09-06T07:29:59.689Z,96.12
2022-09-06T07:30:59.738Z,96.80
2022-09-06T07:32:14.939Z,97.28
2022-09-06T07:32:59.659Z,97.96
2022-09-06T07:33:59.641Z,97.38
2022-09-06T07:34:59.623Z,97.04
2022-09-06T07:35:59.620Z,96.55
2022-09-06T07:36:59.601Z,93.64
2022-09-06T07:37:59.591Z,89.47
2022-09-06T07:38:59.589Z,83.76
2022-09-06T07:39:59.635Z,80.87
2022-09-06T07:40:59.557Z,76.80
2022-09-06T07:41:59.556Z,72.81
2022-09-06T07:42:59.539Z,69.37
2022-09-06T07:43:59.534Z,65.91
2022-09-06T07:44:59.528Z,64.09
2022-09-06T07:45:59.521Z,62.48
2022-09-06T07:47:59.507Z,59.73
2022-09-06T07:48:59.510Z,59.78
2022-09-06T07:50:59.496Z,60.82
2022-09-06T07:51:59.540Z,61.08
2022-09-06T07:54:13.271Z,60.55
2022-09-06T07:54:59.495Z,59.70
2022-09-06T07:55:59.484Z,58.98
2022-09-06T07:56:59.491Z,58.45
2022-09-06T07:57:59.502Z,57.70
2022-09-06T07:58:59.485Z,57.21
2022-09-06T07:59:59.483Z,56.65
2022-09-06T08:00:59.536Z,56.55
2022-09-06T08:01:59.577Z,54.61
2022-09-06T08:02:59.498Z,54.14
2022-09-06T08:03:59.492Z,53.91
2022-09-06T08:04:59.641Z,52.95
2022-09-06T08:06:14.999Z,52.28
2022-09-06T08:08:59.847Z,49.87
2022-09-06T08:09:59.507Z,49.48
2022-09-06T08:10:59.511Z,49.38
2022-09-06T08:11:59.508Z,49.69
2022-09-06T08:12:59.522Z,49.13
2022-09-06T08:13:59.519Z,48.02
2022-09-06T08:14:59.524Z,49.10
2022-09-06T08:15:59.552Z,48.81
2022-09-06T08:16:59.533Z,48.36
2022-09-06T08:17:59.537Z,48.29
2022-09-06T08:18:59.542Z,49.13
2022-09-06T08:19:59.545Z,48.66
2022-09-06T08:20:59.549Z,50.49
2022-09-06T08:21:59.553Z,50.36
2022-09-06T08:22:59.559Z,49.01
2022-09-06T08:23:59.561Z,48.66
2022-09-06T08:24:59.575Z,47.91
2022-09-06T08:25:59.574Z,46.93
2022-09-06T08:26:59.608Z,45.54
2022-09-06T08:27:59.589Z,45.74
2022-09-06T08:28:59.598Z,45.62
2022-09-06T08:29:59.603Z,45.19
2022-09-06T08:30:59.601Z,44.92
2022-09-06T08:31:59.679Z,44.67
2022-09-06T08:32:59.616Z,43.97
2022-09-06T08:33:59.622Z,43.06
2022-09-06T08:34:59.627Z,42.38
2022-09-06T08:35:59.632Z,42.50
2022-09-06T08:36:59.637Z,42.50
2022-09-06T08:37:59.646Z,42.92
2022-09-06T08:38:59.651Z,42.78
2022-09-06T08:39:59.704Z,41.89
2022-09-06T08:40:59.668Z,41.91
2022-09-06T08:41:59.669Z,42.17
2022-09-06T08:42:59.678Z,42.29
2022-09-06T08:44:59.691Z,42.05
2022-09-06T08:45:59.696Z,41.89
2022-09-06T08:46:59.812Z,41.33
2022-09-06T08:47:59.707Z,40.41
2022-09-06T08:48:59.714Z,40.09
2022-09-06T08:49:59.719Z,40.28
2022-09-06T08:50:59.726Z,40.86
2022-09-06T08:51:59.731Z,41.31
2022-09-06T08:53:16.904Z,41.66
2022-09-06T08:53:59.747Z,41.33
2022-09-06T08:54:59.747Z,41.30
2022-09-06T08:55:59.761Z,40.92
2022-09-06T08:56:59.764Z,39.90
2022-09-06T08:57:59.767Z,40.11
2022-09-06T08:58:59.780Z,40.54
2022-09-06T08:59:59.780Z,40.16
2022-09-06T09:00:59.815Z,38.79
2022-09-06T09:01:59.818Z,37.71
2022-09-06T09:02:59.802Z,36.70
2022-09-06T09:03:59.802Z,37.88
2022-09-06T09:04:59.809Z,39.13
2022-09-06T09:05:59.811Z,39.49
2022-09-06T09:06:59.823Z,38.12
2022-09-06T09:07:59.820Z,37.74
2022-09-06T09:08:59.825Z,38.84
2022-09-06T09:09:59.835Z,41.63
2022-09-06T09:10:59.851Z,42.22
2022-09-06T09:11:59.832Z,42.19
2022-09-06T09:12:59.847Z,41.93
2022-09-06T09:13:59.846Z,41.18
2022-09-06T09:14:59.855Z,40.26
2022-09-06T09:15:59.902Z,38.73
2022-09-06T09:16:59.858Z,37.03
2022-09-06T09:17:59.882Z,37.62
2022-09-06T09:18:59.875Z,37.84
2022-09-06T09:19:59.864Z,37.96
2022-09-06T09:20:59.871Z,37.74
2022-09-06T09:21:59.870Z,37.98
2022-09-06T09:22:59.879Z,37.21
2022-09-06T09:23:59.881Z,37.21
2022-09-06T09:24:59.878Z,36.52
2022-09-06T09:25:59.881Z,36.64
2022-09-06T09:26:59.898Z,35.74
2022-09-06T09:27:59.887Z,37.47
2022-09-06T09:28:59.893Z,36.59
2022-09-06T09:30:59.952Z,35.63
2022-09-06T09:31:59.990Z,36.04
2022-09-06T09:32:59.904Z,35.72
2022-09-06T09:33:59.900Z,36.04
2022-09-06T09:34:59.905Z,36.44
2022-09-06T09:35:59.904Z,35.76
2022-09-06T09:38:05.940Z,34.13
2022-09-06T09:38:59.913Z,33.25
2022-09-06T09:39:59.966Z,35.69
2022-09-06T09:40:59.910Z,35.36
2022-09-06T09:41:59.913Z,35.86
2022-09-06T09:42:59.911Z,36.87
2022-09-06T09:44:04.182Z,35.99
2022-09-06T09:44:59.914Z,36.80
2022-09-06T09:45:59.913Z,35.23
2022-09-06T09:47:00.019Z,35.44
2022-09-06T09:47:59.912Z,34.66
2022-09-06T09:48:59.914Z,35.24
2022-09-06T09:49:59.917Z,35.85
2022-09-06T09:50:59.921Z,34.20
2022-09-06T09:51:59.914Z,35.11
2022-09-06T09:52:59.940Z,36.19
2022-09-06T09:53:59.917Z,37.51
2022-09-06T09:54:59.913Z,38.64
2022-09-06T09:55:59.916Z,42.22
2022-09-06T09:56:59.921Z,42.88
2022-09-06T09:57:59.912Z,45.89
2022-09-06T09:58:59.909Z,45.78
2022-09-06T09:59:59.910Z,47.23
2022-09-06T10:00:59.958Z,48.49
2022-09-06T10:01:59.911Z,49.65
2022-09-06T10:02:59.945Z,49.95
2022-09-06T10:04:59.905Z,49.04
2022-09-06T10:06:02.603Z,49.01
2022-09-06T10:07:59.893Z,49.18
2022-09-06T10:08:59.891Z,50.95
2022-09-06T10:09:59.894Z,50.34
2022-09-06T10:10:59.897Z,49.46
2022-09-06T10:11:59.886Z,51.89
2022-09-06T10:12:59.886Z,52.21
2022-09-06T10:13:59.886Z,51.00
2022-09-06T10:15:03.575Z,50.02
2022-09-06T10:15:59.954Z,49.99
2022-09-06T10:16:59.864Z,49.31
2022-09-06T10:17:59.869Z,50.07
2022-09-06T10:18:59.852Z,50.83
2022-09-06T10:19:59.847Z,50.24
2022-09-06T10:20:59.843Z,51.91
2022-09-06T10:21:59.844Z,52.80
2022-09-06T10:22:59.842Z,53.19
2022-09-06T10:24:59.827Z,50.66
2022-09-06T10:25:59.844Z,50.07
2022-09-06T10:26:59.821Z,52.33
2022-09-06T10:28:10.991Z,53.50
2022-09-06T10:28:59.813Z,53.63
2022-09-06T10:29:59.802Z,53.33
2022-09-06T10:30:59.857Z,53.04
2022-09-06T10:31:59.795Z,50.78
2022-09-06T10:32:59.791Z,49.73
2022-09-06T10:33:59.788Z,49.60
2022-09-06T10:34:59.782Z,49.80
2022-09-06T10:35:59.788Z,49.99
2022-09-06T10:36:59.779Z,50.59
2022-09-06T10:37:59.770Z,50.59
2022-09-06T10:39:03.679Z,49.90
2022-09-06T10:39:59.811Z,49.29
2022-09-06T10:40:59.757Z,49.87
2022-09-06T10:41:59.756Z,49.77
2022-09-06T10:42:59.744Z,51.67
2022-09-06T10:43:59.741Z,51.96
2022-09-06T10:44:59.739Z,50.88
2022-09-06T10:45:59.731Z,50.71
2022-09-06T10:46:59.726Z,50.34
2022-09-06T10:47:59.721Z,50.34
2022-09-06T10:48:59.724Z,48.89
2022-09-06T10:49:59.714Z,47.12
2022-09-06T10:50:59.706Z,46.82
2022-09-06T10:51:59.702Z,47.53
2022-09-06T10:52:59.704Z,48.03
2022-09-06T10:53:59.693Z,47.92
2022-09-06T10:54:59.687Z,47.34
2022-09-06T10:56:01.452Z,47.04
2022-09-06T10:56:59.680Z,46.87
2022-09-06T10:59:59.668Z,47.16
2022-09-06T11:00:59.672Z,47.06
2022-09-06T11:01:59.828Z,47.48
2022-09-06T11:04:04.175Z,45.39
2022-09-06T11:05:59.638Z,45.09
2022-09-06T11:06:59.631Z,46.65
2022-09-06T11:08:59.810Z,46.97
2022-09-06T11:09:59.617Z,47.06
2022-09-06T11:10:59.613Z,46.87
2022-09-06T11:11:59.608Z,47.36
2022-09-06T11:12:59.612Z,47.36
2022-09-06T11:14:02.532Z,45.19
2022-09-06T11:14:59.596Z,45.51
2022-09-06T11:15:59.647Z,45.59
2022-09-06T11:16:59.586Z,44.90
2022-09-06T11:17:59.581Z,45.29
2022-09-06T11:18:59.578Z,45.19
2022-09-06T11:19:59.571Z,44.98
2022-09-06T11:20:59.570Z,45.25
2022-09-06T11:21:59.564Z,45.62
2022-09-06T11:22:59.563Z,45.99
2022-09-06T11:23:59.625Z,46.78
2022-09-06T11:24:59.547Z,47.66
2022-09-06T11:25:59.544Z,48.47
2022-09-06T11:26:59.536Z,48.08
2022-09-06T11:27:59.532Z,47.78
2022-09-06T11:28:59.527Z,48.99
2022-09-06T11:29:59.518Z,48.10
2022-09-06T11:30:59.523Z,46.62
2022-09-06T11:32:59.508Z,46.72
2022-09-06T11:34:01.274Z,47.58
2022-09-06T11:34:59.496Z,47.22
2022-09-06T11:35:59.490Z,47.41
2022-09-06T11:36:59.501Z,47.12
2022-09-06T11:37:59.480Z,47.22
2022-09-06T11:38:59.480Z,46.72
2022-09-06T11:40:59.467Z,47.14
2022-09-06T11:41:59.464Z,47.02
2022-09-06T11:42:59.615Z,46.13
2022-09-06T11:43:59.456Z,46.92
2022-09-06T11:44:59.447Z,46.62
2022-09-06T11:45:59.473Z,47.31
2022-09-06T11:46:59.441Z,46.82
2022-09-06T11:47:59.435Z,46.62
2022-09-06T11:48:59.437Z,45.25
2022-09-06T11:49:59.432Z,45.13
2022-09-06T11:50:59.435Z,45.89
2022-09-06T11:51:59.410Z,46.56
2022-09-06T11:52:59.425Z,47.05
2022-09-06T11:53:59.403Z,47.64
2022-09-06T11:54:59.395Z,47.96
2022-09-06T11:55:59.392Z,47.86
2022-09-06T11:56:59.391Z,47.88
2022-09-06T11:57:59.383Z,47.71
2022-09-06T11:58:59.377Z,47.31
2022-09-06T11:59:59.371Z,45.74
2022-09-06T12:00:59.368Z,44.85
2022-09-06T12:01:59.370Z,45.56
2022-09-06T12:05:00.409Z,45.07
2022-09-06T12:05:59.345Z,44.88
2022-09-06T12:06:59.338Z,45.27
2022-09-06T12:07:59.332Z,45.96
2022-09-06T12:08:59.328Z,45.37
2022-09-06T12:09:59.323Z,45.76
2022-09-06T12:10:59.315Z,45.86
2022-09-06T12:11:59.320Z,45.49
2022-09-06T12:12:59.314Z,45.49
2022-09-06T12:13:59.303Z,43.99
2022-09-06T12:14:59.300Z,44.68
2022-09-06T12:15:59.370Z,45.37
2022-09-06T12:16:59.291Z,43.79
2022-09-06T12:17:59.288Z,44.88
2022-09-06T12:18:59.277Z,44.78
2022-09-06T12:19:59.272Z,44.58
2022-09-06T12:20:59.270Z,43.89
2022-09-06T12:21:59.263Z,43.71
2022-09-06T12:22:59.256Z,43.42
2022-09-06T12:23:59.273Z,43.70
2022-09-06T12:24:59.247Z,43.20
2022-09-06T12:25:59.246Z,43.97
2022-09-06T12:26:59.241Z,44.46
2022-09-06T12:27:59.239Z,43.48
2022-09-06T12:28:59.233Z,45.15
2022-09-06T12:29:59.232Z,45.05
2022-09-06T12:30:59.286Z,45.45
2022-09-06T12:31:59.215Z,45.07
2022-09-06T12:32:59.211Z,44.78
2022-09-06T12:33:59.218Z,44.58
2022-09-06T12:35:59.853Z,43.48
2022-09-06T12:36:59.195Z,43.48
2022-09-06T12:37:59.183Z,43.75
2022-09-06T12:38:59.194Z,43.95
2022-09-06T12:39:59.217Z,43.83
2022-09-06T12:40:59.249Z,44.71
2022-09-06T12:41:59.162Z,44.91
2022-09-06T12:42:59.159Z,43.85
2022-09-06T12:43:59.163Z,43.75
2022-09-06T12:44:59.156Z,43.77
2022-09-06T12:45:59.179Z,44.17
2022-09-06T12:46:59.142Z,43.77
2022-09-06T12:47:59.138Z,43.89
2022-09-06T12:48:59.131Z,43.99
2022-09-06T12:49:59.119Z,43.30
2022-09-06T12:50:59.122Z,43.20
2022-09-06T12:51:59.113Z,43.82
2022-09-06T12:52:59.112Z,44.01
2022-09-06T12:53:59.110Z,44.40
2022-09-06T12:54:59.101Z,42.83
2022-09-06T12:55:59.093Z,43.23
2022-09-06T12:56:59.090Z,42.93
2022-09-06T12:57:59.084Z,43.91
2022-09-06T12:58:59.077Z,43.42
2022-09-06T12:59:59.077Z,43.32
2022-09-06T13:00:59.068Z,42.81
2022-09-06T13:01:59.175Z,42.91
2022-09-06T13:02:59.248Z,43.70
2022-09-06T13:03:59.051Z,44.38
2022-09-06T13:04:59.051Z,44.58
2022-09-06T13:05:59.041Z,44.80
2022-09-06T13:06:59.042Z,45.02
2022-09-06T13:07:59.035Z,42.24
2022-09-06T13:08:59.031Z,42.16
2022-09-06T13:09:59.027Z,42.65
2022-09-06T13:10:59.017Z,42.26
2022-09-06T13:11:59.018Z,41.89
2022-09-06T13:12:59.013Z,41.78
2022-09-06T13:13:59.003Z,42.28
2022-09-06T13:14:59.002Z,42.08
2022-09-06T13:15:59.045Z,42.87
2022-09-06T13:16:58.991Z,43.07
2022-09-06T13:17:58.983Z,42.97